Latest Coastal Weather Observations for Coolangatta (QLD)

IDN60701

Issued at 11:11 pm EST Monday 24 April 2017 (issued every 10 minutes, with the page automatically refreshed every 10 minutes)

About coastal observations | Map of coastal stations | Coastal observations for NSW | Marine services | Other Formats
Station Details ID: 040717 Name: COOLANGATTA Lat: -28.17 Lon: 153.51 Height: 4.0 m
Data from the previous 72 hours. | See also: Recent months at Coolangatta (QLD)
Date/Time
EST
Temp
°C
Wind Pressure Rain since
9am
mm
Weather Cloud Vis
km
Sea
Height
m
Swell
Dir  Spd
kts
Gust
kts
hPa Trend Height
m
Period
s
Dir
24/11:00pm 16.7 SW 1 5 1020.4 - 0.0 - - 10 - - - -
24/10:30pm 16.8 SW 4 5 1020.6 - 0.0 - - 10 - - - -
24/10:00pm 17.1 SW 1 4 1020.7 - 0.0 - - 10 - - - -
24/09:30pm 17.5 SW 6 8 1020.7 - 0.0 - - 10 - - - -
24/09:00pm 17.6 SW 4 5 1020.8 - 0.0 - - 10 - - - -
24/08:30pm 17.8 WSW 6 7 1020.7 - 0.0 - Partly cloudy 10 - - - -
24/08:00pm 18.2 SW 6 7 1020.5 - 0.0 - - 10 - - - -
24/07:30pm 18.4 WSW 7 8 1020.3 - 0.0 - - 10 - - - -
24/07:00pm 18.8 WSW 4 6 1020.0 - 0.0 - - 10 - - - -
24/06:30pm 19.0 WSW 5 6 1019.7 - 0.0 - Partly cloudy 10 - - - -
24/06:00pm 19.8 SSW 3 4 1019.5 - 0.0 - Mostly clear 10 - - - -
24/05:30pm 20.4 SSE 5 7 1019.4 - 0.0 - Partly cloudy 10 - - - -
24/05:00pm 21.4 SSE 6 8 1019.3 - 0.0 - - 10 - - - -
24/04:30pm 21.9 SE 8 11 1019.1 - 0.0 - - 10 - - - -
24/04:00pm 23.0 SE 10 16 1019.1 - 0.0 - - 10 - - - -
24/03:30pm 23.2 SE 10 13 1018.9 - 0.0 - - 10 - - - -
24/03:00pm 23.6 SE 10 13 1018.8 - 0.0 - Mostly clear 10 - - - -
24/02:30pm 24.1 ESE 11 17 1019.1 - 0.0 - Partly cloudy 10 - - - -
24/02:00pm 23.7 ESE 11 16 1019.2 - 0.0 - - 10 - - - -
24/01:30pm 24.2 SE 11 15 1019.1 - 0.0 - Partly cloudy 10 - - - -
24/01:00pm 24.2 ESE 12 16 1019.4 - 0.0 - Partly cloudy 10 - - - -
24/12:30pm 24.2 SE 11 15 1019.7 - 0.0 - Partly cloudy 10 - - - -
24/12:00pm 24.7 SE 9 13 1020.1 - 0.0 - Cloudy 10 - - - -
24/11:30am 24.1 S 7 11 1020.8 - 0.0 - Partly cloudy 10 - - - -
24/11:00am 23.5 S 9 13 1021.2 - 0.0 - Partly cloudy 10 - - - -
24/10:30am 23.4 S 9 13 1021.6 - 0.0 - Partly cloudy 10 - - - -
24/10:00am 24.1 S 9 12 1021.8 - 0.0 - Partly cloudy 10 - - - -
24/09:30am 22.9 SSW 10 15 1021.9 - 0.0 - - 10 - - - -
24/09:00am 22.4 S 9 13 1021.7 - 0.0 - - 10 - - - -
24/08:30am 22.1 SSW 7 10 1021.6 - 0.0 - - 10 - - - -
24/08:00am 20.7 SSW 6 9 1021.4 - 0.0 - - 10 - - - -
24/07:30am 19.9 SSW 5 8 1021.1 - 0.0 - - 10 - - - -
24/07:00am 18.6 SW 4 6 1020.9 - 0.0 - - 10 - - - -
24/06:30am 17.8 SSW 7 9 1020.6 - 0.0 - - 10 - - - -
24/06:00am 17.0 S 6 9 1020.5 - 0.0 - - 10 - - - -
24/05:30am 16.7 SW 3 4 1020.4 - 0.0 - - 10 - - - -
24/05:00am 16.7 SW 4 5 1020.2 - 0.0 - - 10 - - - -
24/04:30am 16.4 WSW 1 4 1020.1 - 0.0 - - 10 - - - -
24/04:00am 16.3 SW 4 5 1020.0 - 0.0 - - 10 - - - -
24/03:30am 16.7 SW 5 6 1020.2 - 0.0 - - 10 - - - -
24/03:00am 16.5 SW 4 5 1020.3 - 0.0 - - 10 - - - -
24/02:30am 16.8 SW 5 6 1020.4 - 0.0 - - 10 - - - -
24/02:00am 16.7 SW 4 5 1020.9 - 0.0 - - 10 - - - -
24/01:30am 17.0 SW 5 6 1021.0 - 0.0 - - 10 - - - -
24/01:00am 16.4 SW 4 6 1021.2 - 0.0 - - 10 - - - -
24/12:30am 16.6 SW 4 6 1021.4 - 0.0 - - 10 - - - -
24/12:00am 17.0 SW 4 5 1021.7 - 0.0 - - 10 - - - -
 
Date/Time
EST
Temp
°C
Wind Pressure Rain since
9am
mm
Weather Cloud Vis
km
Sea
Height
m
Swell
Dir  Spd
kts
Gust
kts
hPa Trend Height
m
Period
s
Dir
23/11:30pm 17.3 SW 4 5 1021.8 - 0.0 - - 10 - - - -
23/11:00pm 17.2 SW 5 6 1021.9 - 0.0 - - 10 - - - -
23/10:30pm 17.5 SW 4 6 1022.1 - 0.0 - - 10 - - - -
23/10:00pm 17.8 SW 3 4 1022.3 - 0.0 - - 10 - - - -
23/09:30pm 18.1 SW 5 6 1022.4 - 0.0 - - 10 - - - -
23/09:00pm 18.4 SW 3 4 1022.4 - 0.0 - Partly cloudy 10 - - - -
23/08:30pm 18.5 SW 5 6 1022.3 - 0.0 - - 10 - - - -
23/08:00pm 18.6 WSW 5 6 1022.1 - 0.0 - - 10 - - - -
23/07:30pm 18.9 WSW 5 6 1021.9 - 0.0 - Partly cloudy 10 - - - -
23/07:00pm 19.5 SW 4 5 1021.6 - 0.0 - Partly cloudy 10 - - - -
23/06:30pm 20.1 S 4 4 1021.3 - 0.0 - - 10 - - - -
23/06:00pm 19.9 S 5 5 1021.1 - 0.0 - Cloudy 10 - - - -
23/05:30pm 20.7 SSE 5 7 1021.0 - 0.0 - - 10 - - - -
23/05:00pm 21.7 SE 8 11 1020.9 - 0.0 - Partly cloudy 10 - - - -
23/04:30pm 22.3 ESE 8 11 1020.6 - 0.0 - Partly cloudy 10 - - - -
23/04:00pm 22.2 ESE 12 15 1020.3 - 0.0 - Partly cloudy 10 - - - -
23/03:30pm 22.4 ESE 10 15 1020.3 - 0.0 - Partly cloudy 10 - - - -
23/03:00pm 22.8 SE 12 15 1020.4 - 0.0 - Mostly cloudy 10 - - - -
23/02:30pm 23.9 ESE 13 16 1020.5 - 0.0 - - 10 - - - -
23/02:00pm 24.2 SE 13 18 1020.5 - 0.0 - Partly cloudy 10 - - - -
23/01:30pm 24.2 SSE 10 12 1020.7 - 0.0 - Partly cloudy 10 - - - -
23/01:00pm 24.1 SSE 9 13 1020.9 - 0.0 - Partly cloudy 10 - - - -
23/12:30pm 24.8 SE 10 14 1021.1 - 0.0 - Partly cloudy 10 - - - -
23/12:00pm 23.4 SE 11 16 1021.6 - 0.0 - Mostly cloudy 10 - - - -
23/11:30am 24.1 SSE 11 17 1021.9 - 0.0 - Partly cloudy 10 - - - -
23/11:00am 23.3 SSE 10 15 1022.4 - 0.0 - Cloudy 10 - - - -
23/10:30am 23.8 SSW 7 13 1022.8 - 0.0 - Partly cloudy 10 - - - -
23/10:00am 23.2 S 8 13 1023.3 - 0.0 - Partly cloudy 10 - - - -
23/09:30am 22.5 SSW 9 14 1023.4 - 0.0 - - 10 - - - -
23/09:00am 23.1 SSW 8 13 1023.4 - 0.0 - Mostly cloudy 10 - - - -
23/08:30am 21.8 SSW 8 11 1023.3 - 0.0 - - 10 - - - -
23/08:00am 21.1 SSW 8 11 1023.3 - 0.0 - - 10 - - - -
23/07:30am 19.9 SSW 5 7 1023.0 - 0.0 - - 10 - - - -
23/07:00am 18.6 S 5 8 1022.8 - 0.0 - Partly cloudy 10 - - - -
23/06:30am 17.8 SW 5 8 1022.5 - 0.0 - - 10 - - - -
23/06:00am 18.1 SSW 6 8 1022.3 - 0.0 - Partly cloudy 10 - - - -
23/05:30am 18.2 SSW 6 8 1022.0 - 0.0 - - 10 - - - -
23/05:00am 18.3 SSW 7 10 1021.8 - 0.0 - - 10 - - - -
23/04:30am 18.2 SSW 7 11 1021.6 - 0.0 - - 10 - - - -
23/04:00am 18.6 SSW 8 11 1021.5 - 0.0 - - 10 - - - -
23/03:30am 18.3 SSW 7 10 1021.4 - 0.0 - - 10 - - - -
23/03:00am 17.7 SSW 7 10 1021.5 - 0.0 - Mostly cloudy 10 - - - -
23/02:30am 15.4 SSW 4 8 1021.8 - 0.0 - - 10 - - - -
23/02:00am 14.9 SSW 3 4 1022.2 - 0.0 - - 10 - - - -
23/01:30am 15.4 SW 3 4 1022.4 - 0.0 - - 10 - - - -
23/01:00am 15.4 SW 4 5 1022.6 - 0.0 - - 10 - - - -
23/12:30am 15.2 SSW 3 5 1023.0 - 0.0 - - 10 - - - -
23/12:00am 15.8 SW 5 6 1023.4 - 0.0 - Mostly cloudy 10 - - - -
 
Date/Time
EST
Temp
°C
Wind Pressure Rain since
9am
mm
Weather Cloud Vis
km
Sea
Height
m
Swell
Dir  Spd
kts
Gust
kts
hPa Trend Height
m
Period
s
Dir
22/11:30pm 15.7 SW 3 5 1023.7 - 0.0 - - 10 - - - -
22/11:00pm 16.2 SW 3 4 1023.7 - 0.0 - - 10 - - - -
22/10:30pm 17.0 SW 5 6 1023.9 - 0.0 - - 10 - - - -
22/10:00pm 16.9 SW 5 6 1024.0 - 0.0 - - 10 - - - -
22/09:30pm 16.8 WSW 5 7 1024.3 - 0.0 - - 10 - - - -
22/09:00pm 16.3 SW 5 6 1024.3 - 0.0 - Mostly clear 10 - - - -
22/08:30pm 16.2 WSW 3 4 1024.2 - 0.0 - - 10 - - - -
22/08:00pm 17.2 SW 4 4 1024.0 - 0.0 - Partly cloudy 10 - - - -
22/07:30pm 17.9 SW 3 4 1023.9 - 0.0 - - 10 - - - -
22/07:00pm 18.9 SW 5 6 1023.7 - 0.0 - Partly cloudy 10 - - - -
22/06:30pm 19.0 SSW 6 7 1023.2 - 0.0 - - 10 - - - -
22/06:00pm 19.3 S 6 8 1023.1 - 0.0 - - 10 - - - -
22/05:30pm 20.4 SSE 7 10 1022.9 - 0.0 - - 10 - - - -
22/05:00pm 21.4 SSE 9 11 1022.8 - 0.0 - - 10 - - - -
22/04:30pm 22.2 SE 10 14 1022.7 - 0.0 - - 10 - - - -
22/04:00pm 22.7 SE 12 15 1022.6 - 0.0 - - 10 - - - -
22/03:30pm 22.4 SE 11 17 1022.3 - 0.0 - Partly cloudy 10 - - - -
22/03:00pm 23.7 SE 12 17 1022.2 - 0.0 - Cloudy 10 - - - -
22/02:30pm 23.7 ESE 13 17 1022.2 - 0.0 - Partly cloudy 10 - - - -
22/02:00pm 24.4 ESE 12 16 1022.5 - 0.0 - - 10 - - - -
22/01:30pm 24.0 ESE 15 19 1022.7 - 0.0 - - 10 - - - -
22/01:00pm 24.0 SE 15 23 1022.8 - 0.0 - Partly cloudy 10 - - - -
22/12:30pm 24.2 SSE 15 19 1023.1 - 0.0 - Partly cloudy 10 - - - -
22/12:00pm 24.1 SE 14 19 1023.9 - 0.0 - Mostly cloudy 10 - - - -
22/11:30am 23.8 SE 14 19 1024.3 - 0.0 - Partly cloudy 10 - - - -
22/11:00am 24.8 SE 15 23 1024.6 - 0.0 - Partly cloudy 10 - - - -
22/10:30am 24.0 SE 14 18 1024.9 - 0.0 - - 10 - - - -
22/10:00am 24.1 SE 14 18 1025.0 - 0.0 - - 10 - - - -
22/09:30am 22.5 SSE 8 13 1025.1 - 0.0 - Partly cloudy 10 - - - -
22/09:00am 20.3 S 8 9 1025.2 - 2.6 Recent precip. Partly cloudy 10 - - - -
22/08:30am 19.4 S 8 12 1025.2 - 2.6 - Partly cloudy 10 - - - -
22/08:00am 19.5 S 5 7 1025.2 - 2.4 - Partly cloudy 10 - - - -
22/07:30am 19.6 SSW 5 7 1025.0 - 2.4 - Partly cloudy 10 - - - -
22/07:00am 19.3 S 5 8 1024.5 - 2.4 - Partly cloudy 10 - - - -
22/06:30am 18.9 SSW 5 7 1024.2 - 2.4 - Partly cloudy 10 - - - -
22/06:00am 18.7 SSW 5 8 1023.9 - 2.4 - Mostly cloudy 10 - - - -
22/05:30am 18.9 SSW 7 9 1023.6 - 2.4 - Partly cloudy 10 - - - -
22/05:00am 18.8 SSW 6 8 1023.3 - 2.4 - Partly cloudy 10 - - - -
22/04:30am 18.5 SSW 5 7 1023.1 - 2.4 - Partly cloudy 10 - - - -
22/04:00am 18.5 S 6 8 1022.8 - 2.4 - Partly cloudy 10 - - - -
22/03:30am 18.6 S 6 7 1022.9 - 2.4 - Partly cloudy 10 - - - -
22/03:00am 18.5 S 6 8 1022.9 - 2.4 - Cloudy 10 - - - -
22/02:30am 18.3 S 7 8 1023.0 - 2.4 - Partly cloudy 10 - - - -
22/02:00am 17.9 S 4 6 1023.2 - 2.4 - Partly cloudy 10 - - - -
22/01:30am 17.9 S 5 7 1023.5 - 2.4 - Partly cloudy 10 - - - -
22/01:00am 18.1 S 6 6 1023.6 - 2.4 - Partly cloudy 10 - - - -
22/12:30am 18.0 SSW 6 8 1023.8 - 2.4 - Partly cloudy 10 - - - -
22/12:00am 17.7 SSW 5 7 1024.0 - 2.4 Rain Mostly clear 10 - - - -
 
Date/Time
EST
Temp
°C
Wind Pressure Rain since
9am
mm
Weather Cloud Vis
km
Sea
Height
m
Swell
Dir  Spd
kts
Gust
kts
hPa Trend Height
m
Period
s
Dir
21/11:30pm 17.9 SSW 5 7 1024.2 - 2.4 - Partly cloudy 10 - - - -

Other Formats:

Comma delimited format used in spreadsheet applications
http://www.bom.gov.au/fwo/IDN60701/IDN60701.94592.axf

JavaScript Object Notation format (JSON) in row-major order
http://www.bom.gov.au/fwo/IDN60701/IDN60701.94592.json